Weather reports worldwide

Advertisment
Capo Spartivento, Italy (16469): temperature & dewpoint: 23.10.2020 11:00:00 - 29.10.2020 11:00:00 (CET)Capo Spartivento, Italy (16469): wind speed: 23.10.2020 11:00:00 - 29.10.2020 11:00:00 (CET)Capo Spartivento, Italy (16469): wind direction: 23.10.2020 11:00:00 - 29.10.2020 11:00:00 (CET)Capo Spartivento, Italy (16469): reduced air pressure: 23.10.2020 11:00:00 - 29.10.2020 11:00:00 (CET)Capo Spartivento, Italy (16469): precipitation: 23.10.2020 11:00:00 - 29.10.2020 11:00:00 (CET)
Date & Time tt [°C] td [°C] ff [km/h] ff [kn] dd ppp [hPa] rr [mm]
29.10.2020 11:00:00 21,4 15,6 5 3 SW 1019,3 -
29.10.2020 10:00:00 20,9 15,6 4 2 ESE 1019,0 -
29.10.2020 09:00:00 20,2 15,3 2 1 S 1018,7 -
29.10.2020 08:00:00 18,3 15,3 4 2 NNE 1018,3 -
29.10.2020 07:00:00 17,1 14,3 11 6 NNE 1017,4 0,0
29.10.2020 06:00:00 16,9 13,9 13 7 NNW 1016,8 -
29.10.2020 05:00:00 17,8 14,4 2 1 NW 1016,6 -
29.10.2020 04:00:00 17,5 13,9 2 1 ENE 1016,5 -
29.10.2020 03:00:00 17,3 13,9 9 5 NNW 1016,4 -
29.10.2020 02:00:00 17,7 13,9 9 5 NNW 1016,3 -
29.10.2020 01:00:00 18,1 14,3 4 2 NNW 1016,1 0,0
29.10.2020 00:00:00 17,9 13,9 2 1 SSW 1015,9 -
28.10.2020 23:00:00 17,3 13,1 5 3 N 1015,7 -
28.10.2020 22:00:00 17,5 12,8 8 4 N 1015,5 -
28.10.2020 21:00:00 17,1 11,1 9 5 N 1015,1 -
28.10.2020 20:00:00 17,5 11,0 4 2 NNW 1014,7 -
28.10.2020 19:00:00 18,0 11,3 2 1 N 1014,3 0,0
28.10.2020 18:00:00 17,7 10,5 4 2 N 1013,8 -
28.10.2020 17:00:00 18,5 9,8 4 2 ESE 1013,2 -
28.10.2020 16:00:00 19,1 10,6 4 2 E 1012,8 -
28.10.2020 15:00:00 19,7 10,6 4 2 WSW 1012,3 -
28.10.2020 14:00:00 21,1 13,2 4 2 SSE 1011,9 -
28.10.2020 13:00:00 19,0 12,2 4 2 S 1011,8 -
28.10.2020 12:00:00 17,8 12,6 5 3 S 1012,0 -
28.10.2020 11:00:00 16,9 13,5 4 2 ESE 1012,6 -
28.10.2020 10:00:00 16,7 13,2 0 0 N 1012,3 -
28.10.2020 09:00:00 16,0 12,5 5 3 N 1011,5 -
28.10.2020 08:00:00 15,5 12,4 5 3 NNE 1010,8 -
28.10.2020 07:00:00 15,6 13,0 8 4 NNE 1010,1 -
28.10.2020 06:00:00 16,0 13,2 4 2 NNW 1009,7 -
28.10.2020 05:00:00 16,2 14,3 5 3 NNW 1009,7 -
28.10.2020 04:00:00 15,6 15,2 5 3 NNE 1009,7 -
28.10.2020 03:00:00 15,1 15,0 5 3 ENE 1009,7 -
28.10.2020 02:00:00 15,4 15,3 2 1 SW 1009,8 -
28.10.2020 01:00:00 15,1 15,0 5 3 SW 1010,7 -
28.10.2020 00:00:00 14,9 14,8 9 5 NE 1010,8 -
27.10.2020 23:00:00 14,9 14,8 18 10 W 1010,8 -
27.10.2020 22:00:00 14,3 14,2 5 3 NE 1011,6 -
27.10.2020 21:00:00 14,8 14,7 11 6 NE 1011,2 -
27.10.2020 20:00:00 17,3 15,0 9 5 NNW 1010,6 -
27.10.2020 19:00:00 17,0 14,9 11 6 W 1010,5 -
27.10.2020 18:00:00 17,1 14,7 5 3 N 1010,4 -
27.10.2020 17:00:00 16,7 15,2 9 5 NNW 1010,1 -
27.10.2020 16:00:00 16,0 15,6 26 14 NNE 1009,8 -
27.10.2020 15:00:00 15,5 15,4 13 7 NNE 1010,9 -
27.10.2020 14:00:00 17,1 15,0 13 7 NNE 1010,5 -
27.10.2020 13:00:00 16,9 14,1 15 8 S 1011,4 -
27.10.2020 12:00:00 20,7 18,2 18 10 SW 1011,2 -
27.10.2020 11:00:00 20,3 17,1 5 3 WSW 1011,5 -
27.10.2020 10:00:00 20,7 16,7 24 13 W 1012,3 -
27.10.2020 09:00:00 19,7 15,3 18 10 WSW 1012,6 -
27.10.2020 08:00:00 18,9 15,1 18 10 WNW 1012,4 -
27.10.2020 07:00:00 17,8 15,7 15 8 W 1011,9 0,0
27.10.2020 06:00:00 17,8 15,2 9 5 WNW 1011,4 -
27.10.2020 05:00:00 17,4 14,2 13 7 W 1011,8 -
27.10.2020 04:00:00 17,4 14,6 15 8 W 1011,8 -
27.10.2020 03:00:00 17,8 15,4 8 4 W 1012,0 -
27.10.2020 02:00:00 17,6 14,4 11 6 NW 1012,6 -
27.10.2020 01:00:00 18,4 14,2 0 0 N 1013,0 0,0
27.10.2020 00:00:00 18,5 12,4 5 3 WSW 1013,5 -
26.10.2020 23:00:00 18,4 12,6 13 7 NW 1013,8 -
26.10.2020 22:00:00 18,0 13,2 22 12 W 1014,2 -
26.10.2020 21:00:00 17,8 14,2 15 8 SW 1014,3 -
26.10.2020 20:00:00 17,8 14,2 8 4 WSW 1014,1 -
26.10.2020 19:00:00 17,9 13,9 13 7 W 1014,1 0,0
26.10.2020 18:00:00 18,3 14,3 9 5 SSW 1013,9 -
26.10.2020 17:00:00 19,1 14,3 8 4 WSW 1013,7 -
26.10.2020 16:00:00 19,7 13,8 24 13 SW 1013,7 -
26.10.2020 15:00:00 20,0 14,5 21 11 WSW 1014,0 -
26.10.2020 14:00:00 20,3 15,0 22 12 WSW 1014,4 -
26.10.2020 13:00:00 20,3 14,6 26 14 WNW 1014,9 0,0
26.10.2020 12:00:00 20,5 14,5 24 13 SW 1015,5 -
26.10.2020 11:00:00 21,1 11,9 16 9 SSW 1016,2 -
26.10.2020 10:00:00 21,1 10,8 2 1 NNE 1016,4 -
26.10.2020 09:00:00 19,7 14,9 4 2 S 1016,5 -
26.10.2020 08:00:00 18,7 14,3 2 1 SW 1016,5 -
26.10.2020 07:00:00 18,0 12,2 4 2 WSW 1016,1 0,0
26.10.2020 06:00:00 17,8 9,1 5 3 WNW 1015,9 -
26.10.2020 05:00:00 18,0 9,6 2 1 NNW 1016,0 -
26.10.2020 04:00:00 17,4 12,3 11 6 NNW 1016,0 -
26.10.2020 03:00:00 17,3 13,1 11 6 NNW 1016,1 -
26.10.2020 02:00:00 17,2 13,2 15 8 NNW 1016,4 -
26.10.2020 01:00:00 17,4 12,8 13 7 NNW 1016,9 0,0
26.10.2020 00:00:00 18,3 12,5 5 3 W 1017,3 -
25.10.2020 23:00:00 18,5 13,1 2 1 N 1017,4 -
25.10.2020 22:00:00 17,9 13,3 8 4 NNW 1017,3 -
25.10.2020 21:00:00 18,0 12,6 13 7 N 1017,0 -
25.10.2020 20:00:00 18,4 11,2 16 9 WNW 1016,7 -
25.10.2020 19:00:00 19,0 10,8 26 14 W 1016,6 0,0
25.10.2020 18:00:00 19,6 11,3 26 14 W 1016,5 -
25.10.2020 17:00:00 20,3 11,7 18 10 W 1016,3 -
25.10.2020 16:00:00 21,7 14,5 4 2 ESE 1016,0 -
25.10.2020 15:00:00 22,2 15,0 16 9 E 1015,8 -
25.10.2020 14:00:00 21,9 14,0 11 6 SSE 1015,7 -
25.10.2020 13:00:00 21,9 13,4 22 12 ENE 1016,1 0,0
25.10.2020 12:00:00 22,6 12,8 13 7 E 1016,6 -
25.10.2020 11:00:00 22,4 12,0 13 7 E 1017,0 -
25.10.2020 10:00:00 21,8 10,6 5 3 SSW 1016,9 -
25.10.2020 09:00:00 20,8 11,4 5 3 NNE 1017,0 -
25.10.2020 08:00:00 19,9 10,8 11 6 SW 1016,8 -
25.10.2020 07:00:00 19,3 10,2 9 5 NW 1016,5 0,0
25.10.2020 06:00:00 19,5 15,3 4 2 SSE 1016,3 -
25.10.2020 05:00:00 19,5 10,4 16 9 NW 1015,8 -
25.10.2020 04:00:00 19,6 13,9 4 2 N 1015,7 -
25.10.2020 03:00:00 19,7 17,2 5 3 W 1015,9 -
25.10.2020 02:00:00 20,1 19,7 4 2 NE 1016,2 -
25.10.2020 01:00:00 - - - - - - -
25.10.2020 00:00:00 20,0 18,9 11 6 NNW 1016,4 -
24.10.2020 23:00:00 20,1 19,2 8 4 NW 1016,8 -
24.10.2020 22:00:00 20,5 20,0 4 2 WNW 1016,7 -
24.10.2020 21:00:00 20,5 19,6 4 2 WSW 1016,8 -
24.10.2020 20:00:00 20,9 19,3 5 3 SE 1016,4 -
24.10.2020 19:00:00 20,7 18,6 2 1 NE 1016,4 0,0
24.10.2020 18:00:00 21,1 19,0 5 3 WSW 1016,3 -
24.10.2020 17:00:00 21,6 18,9 11 6 SW 1016,1 -
24.10.2020 16:00:00 22,2 18,3 11 6 SW 1016,3 -
24.10.2020 15:00:00 24,2 19,0 8 4 SW 1016,1 -
24.10.2020 14:00:00 23,6 19,1 8 4 W 1016,2 -
24.10.2020 13:00:00 23,2 19,1 11 6 SW 1016,6 -
24.10.2020 12:00:00 24,3 20,4 4 2 NW 1017,3 -
24.10.2020 11:00:00 23,1 19,6 4 2 SE 1017,8 -
24.10.2020 10:00:00 22,6 16,5 9 5 E 1017,7 -
24.10.2020 09:00:00 21,7 16,4 11 6 ENE 1017,7 -
24.10.2020 08:00:00 20,2 12,1 5 3 NNE 1017,4 -
24.10.2020 07:00:00 19,3 8,8 8 4 NE 1017,4 0,0
24.10.2020 06:00:00 19,0 7,0 16 9 NNE 1017,4 -
24.10.2020 05:00:00 18,2 12,4 15 8 NNE 1017,8 -
24.10.2020 04:00:00 17,8 13,8 15 8 NNE 1018,0 -
24.10.2020 03:00:00 17,9 13,3 8 4 NNE 1018,0 -
24.10.2020 02:00:00 18,3 16,9 2 1 W 1018,8 -
24.10.2020 01:00:00 17,9 15,8 11 6 W 1019,0 0,0
24.10.2020 00:00:00 18,1 16,9 13 7 WNW 1019,4 -
23.10.2020 23:00:00 18,3 17,1 15 8 W 1019,9 -
23.10.2020 22:00:00 18,2 16,3 18 10 NW 1020,4 -
23.10.2020 21:00:00 18,2 15,6 16 9 S 1020,5 -
23.10.2020 20:00:00 18,3 14,7 13 7 WSW 1020,6 -
23.10.2020 19:00:00 18,4 14,8 26 14 W 1020,7 0,0
23.10.2020 18:00:00 18,5 14,9 16 9 S 1020,5 -
23.10.2020 17:00:00 19,5 15,5 16 9 SSW 1020,5 -
23.10.2020 16:00:00 20,5 15,6 26 14 SW 1020,4 -
23.10.2020 15:00:00 21,5 16,4 21 11 W 1020,9 -
23.10.2020 14:00:00 21,6 15,6 16 9 SW 1021,2 -
23.10.2020 13:00:00 21,9 16,1 16 9 SSW 1021,7 0,0
23.10.2020 12:00:00 21,2 16,3 13 7 SW 1022,3 -
23.10.2020 11:00:00 21,4 15,8 4 2 SSE 1022,8 -

tt = temperature
td = dewpoint
ff = wind speed
dd = wind direction
ppp = reduced air pressure
rr = precipitation

Next stations